Portada
METAR-TAF:

METAR-TAF

Aeroports :

San José del Cabo, Mèxic

latitud: 23-09N, longitud: 109-42W, altitud: 109 m

Observació

L'informe es va fer fa 4 hores i 55 minuts, a les 04:44 UTC
Vent 5 kt del Nord/Nord-Est
Temperatura 30°C
Humitat 43%
Pressió 1012 hPa
Visibilitat: 12.9 km
Cel clar

METAR: MMSD 050444Z 02005KT 8SM SKC 30/16 A2989

Hora: 03:39 (09:39 UTC)

Pronòstic

L'informe es va fer fa 4 hores i 39 minuts, a les 05:00 UTC
Pronòstic vàlid del 05 a les 06 UTC al 06 a les 06 UTC
Vent 5 kt del Oest/Nord-Oest
Visibilitat: 10 km
Cel clar
A partir de les 05 a les 1800 UTC
Vent 14 kt del Sud/Sud-Est
Visibilitat: 10 km
Núvols disperses a una alçada de 3000 ft
Núvols disperses a una alçada de 25000 ft
A partir de les 06 a les 0500 UTC
Vent 5 kt del Nord-Oest
Visibilitat: 10 km
Núvols disperses a una alçada de 4000 ft

TAF: MMSD 050500Z 0506/0606 30005KT P6SM SKC FM051800 15014KT P6SM SCT030 SCT250 FM060500 31005KT P6SM SCT040

Observacions i pronòstics meteorològics de més de 4000 aeroports (METAR i TAF).

Les estacions disponibles són els punts grocs i vermells al mapa.

Posi el ratolí al punt desitjat per veure el nom de l'estació.

Feu clic per veure les observacions i els pronòstics meteorològics.

Per canviar el mapa: feu clic els botons verds amb una creu de color negre per apropar; al botó verd amb un guió per allunyar la imatge; o en les fletxes verdes per a mapes adjacents.


METAR-TAF: